sensor_id;sensor_type;location;lat;lon;timestamp;pressure;altitude;pressure_sealevel;temperature;humidity
2339;BME280;1180;51.438;6.978;2024-01-16T16:21:57;99447.63;;;0.83;90.01
2339;BME280;1180;51.438;6.978;2024-01-16T16:24:22;99446.84;;;1.81;82.82
2339;BME280;1180;51.438;6.978;2024-01-16T16:26:49;99445.41;;;2.43;77.64
2339;BME280;1180;51.438;6.978;2024-01-16T16:29:14;99446.78;;;2.73;74.66
2339;BME280;1180;51.438;6.978;2024-01-16T16:31:41;99447.41;;;3.00;72.52
2339;BME280;1180;51.438;6.978;2024-01-16T16:34:08;99438.00;;;3.23;70.79
2339;BME280;1180;51.438;6.978;2024-01-16T16:36:35;99440.09;;;3.34;70.13
2339;BME280;1180;51.438;6.978;2024-01-16T16:39:03;99446.69;;;3.38;69.24
2339;BME280;1180;51.438;6.978;2024-01-16T16:41:29;99436.94;;;3.29;69.65
2339;BME280;1180;51.438;6.978;2024-01-16T16:43:54;99446.63;;;3.40;69.30
2339;BME280;1180;51.438;6.978;2024-01-16T16:46:20;99451.22;;;3.31;68.63
2339;BME280;1180;51.438;6.978;2024-01-16T16:48:47;99444.91;;;3.40;68.44
2339;BME280;1180;51.438;6.978;2024-01-16T16:51:16;99456.16;;;3.35;68.14
2339;BME280;1180;51.438;6.978;2024-01-16T16:53:42;99441.56;;;3.40;68.30
2339;BME280;1180;51.438;6.978;2024-01-16T16:56:10;99445.44;;;3.28;67.69
2339;BME280;1180;51.438;6.978;2024-01-16T16:58:47;99447.00;;;3.30;68.58
2339;BME280;1180;51.438;6.978;2024-01-16T17:01:14;99436.19;;;3.27;68.32
2339;BME280;1180;51.438;6.978;2024-01-16T17:03:41;99438.78;;;3.25;67.88
2339;BME280;1180;51.438;6.978;2024-01-16T17:06:07;99433.22;;;3.17;68.62
2339;BME280;1180;51.438;6.978;2024-01-16T17:08:37;99433.03;;;3.22;68.55
2339;BME280;1180;51.438;6.978;2024-01-16T17:11:03;99430.22;;;3.28;67.53
2339;BME280;1180;51.438;6.978;2024-01-16T17:13:32;99428.91;;;3.19;67.15
2339;BME280;1180;51.438;6.978;2024-01-16T17:15:58;99430.50;;;3.22;66.71
2339;BME280;1180;51.438;6.978;2024-01-16T17:18:28;99425.97;;;3.28;66.67
2339;BME280;1180;51.438;6.978;2024-01-16T17:20:54;99431.50;;;3.17;66.82
2339;BME280;1180;51.438;6.978;2024-01-16T17:23:19;99416.22;;;3.19;66.46
2339;BME280;1180;51.438;6.978;2024-01-16T17:28:12;99418.31;;;3.09;66.55
2339;BME280;1180;51.438;6.978;2024-01-16T17:30:38;99419.91;;;3.12;67.06
2339;BME280;1180;51.438;6.978;2024-01-16T17:33:04;99411.47;;;3.11;66.33
2339;BME280;1180;51.438;6.978;2024-01-16T17:35:29;99414.47;;;3.00;67.17
2339;BME280;1180;51.438;6.978;2024-01-16T17:37:55;99417.75;;;3.02;67.50
2339;BME280;1180;51.438;6.978;2024-01-16T17:40:20;99411.28;;;2.95;67.35
2339;BME280;1180;51.438;6.978;2024-01-16T17:42:46;99410.38;;;2.96;67.57
2339;BME280;1180;51.438;6.978;2024-01-16T17:45:13;99416.25;;;2.98;67.23
2339;BME280;1180;51.438;6.978;2024-01-16T17:47:38;99404.44;;;2.97;67.45
2339;BME280;1180;51.438;6.978;2024-01-16T17:50:05;99401.03;;;2.98;66.86
2339;BME280;1180;51.438;6.978;2024-01-16T17:52:37;99400.81;;;3.03;67.06
2339;BME280;1180;51.438;6.978;2024-01-16T17:55:03;99402.22;;;2.89;67.05
2339;BME280;1180;51.438;6.978;2024-01-16T17:57:31;99398.59;;;2.95;67.79
2339;BME280;1180;51.438;6.978;2024-01-16T17:59:56;99391.97;;;2.93;67.48
2339;BME280;1180;51.438;6.978;2024-01-16T18:02:22;99398.09;;;2.87;67.55
2339;BME280;1180;51.438;6.978;2024-01-16T18:04:48;99392.16;;;2.88;68.11
2339;BME280;1180;51.438;6.978;2024-01-16T18:07:13;99393.75;;;2.91;67.49
2339;BME280;1180;51.438;6.978;2024-01-16T18:09:41;99381.56;;;2.99;67.20
2339;BME280;1180;51.438;6.978;2024-01-16T18:12:08;99374.00;;;2.97;66.65
2339;BME280;1180;51.438;6.978;2024-01-16T18:14:36;99370.06;;;2.92;66.66
2339;BME280;1180;51.438;6.978;2024-01-16T18:17:05;99361.13;;;2.83;67.34
2339;BME280;1180;51.438;6.978;2024-01-16T18:19:32;99355.09;;;2.85;67.33
2339;BME280;1180;51.438;6.978;2024-01-16T18:21:59;99352.22;;;2.93;66.94
2339;BME280;1180;51.438;6.978;2024-01-16T18:24:27;99350.53;;;2.94;66.94
2339;BME280;1180;51.438;6.978;2024-01-16T18:26:52;99346.22;;;2.96;67.10
2339;BME280;1180;51.438;6.978;2024-01-16T18:29:18;99347.91;;;2.95;66.43
2339;BME280;1180;51.438;6.978;2024-01-16T18:31:46;99354.59;;;2.98;66.49
2339;BME280;1180;51.438;6.978;2024-01-16T18:34:11;99348.81;;;2.94;66.14
2339;BME280;1180;51.438;6.978;2024-01-16T18:36:48;99353.13;;;2.92;66.44
2339;BME280;1180;51.438;6.978;2024-01-16T18:39:15;99356.63;;;2.89;67.04
2339;BME280;1180;51.438;6.978;2024-01-16T18:41:48;99343.94;;;2.89;66.43
2339;BME280;1180;51.438;6.978;2024-01-16T18:44:18;99333.53;;;2.96;66.66
2339;BME280;1180;51.438;6.978;2024-01-16T18:46:43;99320.94;;;2.94;66.34
2339;BME280;1180;51.438;6.978;2024-01-16T18:49:09;99324.44;;;2.92;66.77
2339;BME280;1180;51.438;6.978;2024-01-16T18:51:39;99321.31;;;2.85;66.99
2339;BME280;1180;51.438;6.978;2024-01-16T18:54:05;99323.09;;;2.83;66.56
2339;BME280;1180;51.438;6.978;2024-01-16T18:56:35;99311.50;;;2.77;67.23
2339;BME280;1180;51.438;6.978;2024-01-16T18:59:01;99312.91;;;2.84;67.03
2339;BME280;1180;51.438;6.978;2024-01-16T19:01:26;99315.69;;;2.78;67.42
2339;BME280;1180;51.438;6.978;2024-01-16T19:03:55;99313.63;;;2.67;67.57
2339;BME280;1180;51.438;6.978;2024-01-16T19:06:21;99313.84;;;2.82;67.42
2339;BME280;1180;51.438;6.978;2024-01-16T19:08:48;99314.03;;;2.77;67.35
2339;BME280;1180;51.438;6.978;2024-01-16T19:11:13;99314.00;;;2.79;67.40
2339;BME280;1180;51.438;6.978;2024-01-16T19:13:41;99314.94;;;2.76;67.37
2339;BME280;1180;51.438;6.978;2024-01-16T19:16:06;99316.91;;;2.69;67.66
2339;BME280;1180;51.438;6.978;2024-01-16T19:18:34;99317.22;;;2.62;67.39
2339;BME280;1180;51.438;6.978;2024-01-16T19:21:01;99311.28;;;2.63;67.91
2339;BME280;1180;51.438;6.978;2024-01-16T19:23:32;99304.38;;;2.66;67.93
2339;BME280;1180;51.438;6.978;2024-01-16T19:25:58;99301.41;;;2.56;68.27
2339;BME280;1180;51.438;6.978;2024-01-16T19:28:27;99304.63;;;2.60;67.94
2339;BME280;1180;51.438;6.978;2024-01-16T19:30:53;99296.13;;;2.61;67.95
2339;BME280;1180;51.438;6.978;2024-01-16T19:33:20;99297.91;;;2.59;67.31
2339;BME280;1180;51.438;6.978;2024-01-16T19:35:47;99293.81;;;2.56;67.69
2339;BME280;1180;51.438;6.978;2024-01-16T19:38:12;99293.69;;;2.59;67.86
2339;BME280;1180;51.438;6.978;2024-01-16T19:40:38;99295.31;;;2.60;68.02
2339;BME280;1180;51.438;6.978;2024-01-16T19:43:04;99294.88;;;2.71;67.73
2339;BME280;1180;51.438;6.978;2024-01-16T19:45:31;99294.25;;;2.66;67.62
2339;BME280;1180;51.438;6.978;2024-01-16T19:47:56;99296.69;;;2.68;67.50
2339;BME280;1180;51.438;6.978;2024-01-16T19:50:22;99285.09;;;2.62;67.62
2339;BME280;1180;51.438;6.978;2024-01-16T19:52:50;99280.88;;;2.63;67.42
2339;BME280;1180;51.438;6.978;2024-01-16T19:55:17;99284.63;;;2.54;67.73
2339;BME280;1180;51.438;6.978;2024-01-16T19:57:52;99284.75;;;2.51;68.12
2339;BME280;1180;51.438;6.978;2024-01-16T20:00:18;99277.00;;;2.54;67.78
2339;BME280;1180;51.438;6.978;2024-01-16T20:02:45;99277.72;;;2.57;67.25
2339;BME280;1180;51.438;6.978;2024-01-16T20:05:11;99275.06;;;2.60;66.92
2339;BME280;1180;51.438;6.978;2024-01-16T20:07:42;99265.94;;;2.56;66.66
2339;BME280;1180;51.438;6.978;2024-01-16T20:10:11;99265.31;;;2.51;67.20
2339;BME280;1180;51.438;6.978;2024-01-16T20:12:44;99253.47;;;2.52;66.85
2339;BME280;1180;51.438;6.978;2024-01-16T20:15:11;99251.78;;;2.52;67.07
2339;BME280;1180;51.438;6.978;2024-01-16T20:17:47;99244.22;;;2.51;67.13
2339;BME280;1180;51.438;6.978;2024-01-16T20:20:13;99237.47;;;2.51;66.47
2339;BME280;1180;51.438;6.978;2024-01-16T20:22:42;99236.75;;;2.48;66.92
2339;BME280;1180;51.438;6.978;2024-01-16T20:25:11;99232.50;;;2.48;66.86
2339;BME280;1180;51.438;6.978;2024-01-16T20:27:41;99231.97;;;2.41;66.63
2339;BME280;1180;51.438;6.978;2024-01-16T20:30:08;99237.66;;;2.47;66.21
2339;BME280;1180;51.438;6.978;2024-01-16T20:32:37;99241.88;;;2.46;67.80
2339;BME280;1180;51.438;6.978;2024-01-16T20:35:06;99240.69;;;2.34;67.85
2339;BME280;1180;51.438;6.978;2024-01-16T20:37:32;99236.81;;;2.46;66.91
2339;BME280;1180;51.438;6.978;2024-01-16T20:39:58;99241.69;;;2.30;66.88
2339;BME280;1180;51.438;6.978;2024-01-16T20:42:23;99238.09;;;2.36;67.04
2339;BME280;1180;51.438;6.978;2024-01-16T20:44:49;99233.59;;;2.42;66.83
2339;BME280;1180;51.438;6.978;2024-01-16T20:47:14;99235.75;;;2.31;67.06
2339;BME280;1180;51.438;6.978;2024-01-16T20:49:41;99234.09;;;2.30;66.99
2339;BME280;1180;51.438;6.978;2024-01-16T20:52:08;99234.00;;;2.33;66.52
2339;BME280;1180;51.438;6.978;2024-01-16T20:54:37;99234.19;;;2.28;66.06
2339;BME280;1180;51.438;6.978;2024-01-16T20:57:03;99235.13;;;2.26;66.19
2339;BME280;1180;51.438;6.978;2024-01-16T20:59:29;99233.88;;;2.36;65.96
2339;BME280;1180;51.438;6.978;2024-01-16T21:01:54;99230.31;;;2.40;65.74
2339;BME280;1180;51.438;6.978;2024-01-16T21:04:19;99234.09;;;2.30;65.95
2339;BME280;1180;51.438;6.978;2024-01-16T21:06:45;99228.84;;;2.35;66.18
2339;BME280;1180;51.438;6.978;2024-01-16T21:09:10;99220.31;;;2.37;66.42
2339;BME280;1180;51.438;6.978;2024-01-16T21:11:43;99221.84;;;2.41;65.88
2339;BME280;1180;51.438;6.978;2024-01-16T21:14:09;99223.09;;;2.31;66.28
2339;BME280;1180;51.438;6.978;2024-01-16T21:16:35;99215.16;;;2.39;66.47
2339;BME280;1180;51.438;6.978;2024-01-16T21:19:02;99215.16;;;2.39;65.82
2339;BME280;1180;51.438;6.978;2024-01-16T21:21:31;99206.56;;;2.43;65.19
2339;BME280;1180;51.438;6.978;2024-01-16T21:23:56;99205.81;;;2.41;65.62
2339;BME280;1180;51.438;6.978;2024-01-16T21:26:21;99203.72;;;2.30;66.15
2339;BME280;1180;51.438;6.978;2024-01-16T21:28:47;99210.50;;;2.29;65.92
2339;BME280;1180;51.438;6.978;2024-01-16T21:31:12;99201.41;;;2.25;65.81
2339;BME280;1180;51.438;6.978;2024-01-16T21:33:38;99202.28;;;2.24;66.29
2339;BME280;1180;51.438;6.978;2024-01-16T21:36:03;99198.03;;;2.25;66.63
2339;BME280;1180;51.438;6.978;2024-01-16T21:38:30;99201.31;;;2.27;66.24
2339;BME280;1180;51.438;6.978;2024-01-16T21:40:56;99192.91;;;2.26;66.45
2339;BME280;1180;51.438;6.978;2024-01-16T21:43:23;99191.13;;;2.28;66.96
2339;BME280;1180;51.438;6.978;2024-01-16T21:45:49;99171.66;;;2.30;66.23
2339;BME280;1180;51.438;6.978;2024-01-16T21:48:15;99166.59;;;2.30;66.64
2339;BME280;1180;51.438;6.978;2024-01-16T21:50:41;99160.69;;;2.30;66.47
2339;BME280;1180;51.438;6.978;2024-01-16T21:53:07;99161.03;;;2.22;66.78
2339;BME280;1180;51.438;6.978;2024-01-16T21:55:33;99150.78;;;2.25;66.82
2339;BME280;1180;51.438;6.978;2024-01-16T21:57:58;99148.91;;;2.29;66.63
2339;BME280;1180;51.438;6.978;2024-01-16T22:00:24;99143.75;;;2.32;66.37
2339;BME280;1180;51.438;6.978;2024-01-16T22:02:50;99129.31;;;2.34;65.98
2339;BME280;1180;51.438;6.978;2024-01-16T22:05:30;99129.16;;;2.18;66.29
2339;BME280;1180;51.438;6.978;2024-01-16T22:07:56;99124.84;;;2.20;66.44
2339;BME280;1180;51.438;6.978;2024-01-16T22:10:22;99122.97;;;2.24;66.44
2339;BME280;1180;51.438;6.978;2024-01-16T22:12:48;99117.03;;;2.25;66.61
2339;BME280;1180;51.438;6.978;2024-01-16T22:15:14;99112.81;;;2.25;66.48
2339;BME280;1180;51.438;6.978;2024-01-16T22:17:41;99111.81;;;2.28;66.47
2339;BME280;1180;51.438;6.978;2024-01-16T22:20:08;99111.81;;;2.28;65.78
2339;BME280;1180;51.438;6.978;2024-01-16T22:22:36;99109.56;;;2.22;66.27
2339;BME280;1180;51.438;6.978;2024-01-16T22:25:04;99109.56;;;2.22;66.17
2339;BME280;1180;51.438;6.978;2024-01-16T22:27:30;99106.72;;;2.29;65.49
2339;BME280;1180;51.438;6.978;2024-01-16T22:29:56;99104.22;;;2.28;65.89
2339;BME280;1180;51.438;6.978;2024-01-16T22:32:22;99100.16;;;2.25;65.80
2339;BME280;1180;51.438;6.978;2024-01-16T22:34:48;99101.78;;;2.26;66.16
2339;BME280;1180;51.438;6.978;2024-01-16T22:37:13;99090.06;;;2.24;66.04
2339;BME280;1180;51.438;6.978;2024-01-16T22:39:39;99078.31;;;2.23;66.27
2339;BME280;1180;51.438;6.978;2024-01-16T22:42:07;99082.56;;;2.22;66.19
2339;BME280;1180;51.438;6.978;2024-01-16T22:44:35;99076.66;;;2.22;65.53
2339;BME280;1180;51.438;6.978;2024-01-16T22:47:00;99077.00;;;2.14;66.31
2339;BME280;1180;51.438;6.978;2024-01-16T22:49:26;99071.03;;;2.15;66.33
2339;BME280;1180;51.438;6.978;2024-01-16T22:51:51;99065.97;;;2.15;66.25
2339;BME280;1180;51.438;6.978;2024-01-16T22:54:17;99067.69;;;2.14;66.25
2339;BME280;1180;51.438;6.978;2024-01-16T22:56:42;99063.53;;;2.13;66.04
2339;BME280;1180;51.438;6.978;2024-01-16T22:59:08;99064.75;;;2.24;66.02
2339;BME280;1180;51.438;6.978;2024-01-16T23:01:34;99054.78;;;2.21;65.56
2339;BME280;1180;51.438;6.978;2024-01-16T23:04:00;99045.13;;;2.10;65.65
2339;BME280;1180;51.438;6.978;2024-01-16T23:06:26;99046.69;;;2.12;65.30
2339;BME280;1180;51.438;6.978;2024-01-16T23:08:55;99043.19;;;2.15;65.13
2339;BME280;1180;51.438;6.978;2024-01-16T23:11:22;99040.88;;;2.10;65.43
2339;BME280;1180;51.438;6.978;2024-01-16T23:13:50;99048.75;;;2.04;65.75
2339;BME280;1180;51.438;6.978;2024-01-16T23:16:16;99037.59;;;2.08;65.57
2339;BME280;1180;51.438;6.978;2024-01-16T23:18:46;99037.78;;;2.04;65.91
2339;BME280;1180;51.438;6.978;2024-01-16T23:21:15;99035.13;;;2.07;65.64
2339;BME280;1180;51.438;6.978;2024-01-16T23:23:44;99041.41;;;1.98;65.46
2339;BME280;1180;51.438;6.978;2024-01-16T23:26:10;99034.94;;;1.92;65.79
2339;BME280;1180;51.438;6.978;2024-01-16T23:28:36;99029.72;;;1.95;66.08
2339;BME280;1180;51.438;6.978;2024-01-16T23:31:02;99017.13;;;1.94;65.76
2339;BME280;1180;51.438;6.978;2024-01-16T23:33:27;99011.41;;;1.90;65.72
2339;BME280;1180;51.438;6.978;2024-01-16T23:35:53;99003.53;;;1.96;65.76
2339;BME280;1180;51.438;6.978;2024-01-16T23:38:19;99008.66;;;1.95;65.65
2339;BME280;1180;51.438;6.978;2024-01-16T23:40:44;99006.88;;;1.97;65.81
2339;BME280;1180;51.438;6.978;2024-01-16T23:43:10;99006.34;;;1.90;66.22
2339;BME280;1180;51.438;6.978;2024-01-16T23:45:36;98997.44;;;1.81;66.02
2339;BME280;1180;51.438;6.978;2024-01-16T23:48:03;98994.91;;;1.81;66.64
2339;BME280;1180;51.438;6.978;2024-01-16T23:50:29;98986.63;;;1.78;66.30
2339;BME280;1180;51.438;6.978;2024-01-16T23:52:54;98981.84;;;1.71;66.57
2339;BME280;1180;51.438;6.978;2024-01-16T23:55:19;98991.94;;;1.71;66.04
2339;BME280;1180;51.438;6.978;2024-01-16T23:57:45;98989.09;;;1.79;66.49
